Time;durP1;ratioP1;P1;durP2;ratioP2;P2;SDS_P1;SDS_P2;PMS_P1;PMS_P2;Temp;Humidity;BMP_temperature;BMP_pressure;BME280_temperature;BME280_humidity;BME280_pressure;Samples;Min_cycle;Max_cycle;Signal;HPM_P1;HPM_P2
2022/10/10 00:00:50;;;;;;;1.60;1.40;;;;;;;;;;5034365;28;20307;-53
2022/10/10 00:03:17;;;;;;;1.40;1.30;;;;;;;;;;5043620;28;20681;-54
2022/10/10 00:05:44;;;;;;;1.83;1.67;;;;;;;;;;5046246;28;20754;-50
2022/10/10 00:08:11;;;;;;;2.00;1.60;;;;;;;;;;5045716;28;20199;-52
2022/10/10 00:10:37;;;;;;;1.80;1.40;;;;;;;;;;5040273;28;20223;-50
2022/10/10 00:13:04;;;;;;;1.70;1.57;;;;;;;;;;5040934;28;20318;-53
2022/10/10 00:15:31;;;;;;;2.20;1.60;;;;;;;;;;5040872;28;20234;-50
2022/10/10 00:17:57;;;;;;;1.93;1.60;;;;;;;;;;5038453;28;20203;-54
2022/10/10 00:20:24;;;;;;;2.00;1.50;;;;;;;;;;5045116;28;20247;-53
2022/10/10 00:22:50;;;;;;;2.00;1.67;;;;;;;;;;5046322;28;20242;-55
2022/10/10 00:25:17;;;;;;;2.27;1.40;;;;;;;;;;5047105;28;20204;-53
2022/10/10 00:27:43;;;;;;;1.53;1.43;;;;;;;;;;5051877;28;20206;-52
2022/10/10 00:30:10;;;;;;;1.30;1.13;;;;;;;;;;5048085;28;20234;-50
2022/10/10 00:32:36;;;;;;;1.87;1.50;;;;;;;;;;5045298;28;20753;-51
2022/10/10 00:35:04;;;;;;;1.63;1.50;;;;;;;;;;5039882;28;20679;-50
2022/10/10 00:37:30;;;;;;;1.73;1.30;;;;;;;;;;5036866;28;20230;-50
2022/10/10 00:39:56;;;;;;;2.10;1.60;;;;;;;;;;5045233;28;20314;-51
2022/10/10 00:42:23;;;;;;;1.70;1.30;;;;;;;;;;5048587;28;20245;-50
2022/10/10 00:45:23;;;;;;;1.60;1.40;;;;;;;;;;5039447;28;20195;-52
2022/10/10 00:47:51;;;;;;;1.57;1.27;;;;;;;;;;5039426;28;20238;-53
2022/10/10 00:50:18;;;;;;;1.67;1.40;;;;;;;;;;5043897;28;20230;-51
2022/10/10 00:52:45;;;;;;;1.60;1.40;;;;;;;;;;5037873;28;20250;-50
2022/10/10 00:55:12;;;;;;;1.90;1.37;;;;;;;;;;5039334;28;20230;-51
2022/10/10 00:57:38;;;;;;;1.40;1.30;;;;;;;;;;5042283;28;20278;-52
2022/10/10 01:00:06;;;;;;;1.43;1.33;;;;;;;;;;5039144;28;20310;-50
2022/10/10 01:02:32;;;;;;;1.90;1.40;;;;;;;;;;5038282;28;20255;-53
2022/10/10 01:04:59;;;;;;;1.87;1.40;;;;;;;;;;5050598;28;20230;-52
2022/10/10 01:07:27;;;;;;;1.33;1.23;;;;;;;;;;5039466;28;20565;-50
2022/10/10 01:09:56;;;;;;;1.50;1.33;;;;;;;;;;5037962;28;20195;-53
2022/10/10 01:12:42;;;;;;;1.40;1.30;;;;;;;;;;5021129;28;20245;-53
2022/10/10 01:15:25;;;;;;;2.03;1.50;;;;;;;;;;5035876;28;20233;-50
2022/10/10 01:18:13;;;;;;;1.63;1.23;;;;;;;;;;5039635;28;20675;-51
2022/10/10 01:21:04;;;;;;;1.57;1.37;;;;;;;;;;5036064;28;20257;-50
2022/10/10 01:23:51;;;;;;;1.63;1.20;;;;;;;;;;5046124;28;20301;-56
2022/10/10 01:26:42;;;;;;;2.27;1.67;;;;;;;;;;5043555;28;20325;-54
2022/10/10 01:29:20;;;;;;;1.60;1.20;;;;;;;;;;5039164;28;20234;-55
2022/10/10 01:31:50;;;;;;;1.40;1.20;;;;;;;;;;5041656;28;20293;-53
2022/10/10 01:34:31;;;;;;;1.60;1.20;;;;;;;;;;5045814;28;20249;-52
2022/10/10 01:37:03;;;;;;;1.70;1.50;;;;;;;;;;5043906;28;20265;-50
2022/10/10 01:40:07;;;;;;;1.90;1.40;;;;;;;;;;5044434;28;20242;-50
2022/10/10 01:42:41;;;;;;;1.97;1.40;;;;;;;;;;5043103;28;20226;-53
2022/10/10 01:45:08;;;;;;;1.47;1.23;;;;;;;;;;5039841;28;20203;-50
2022/10/10 01:47:34;;;;;;;1.50;1.13;;;;;;;;;;5041854;28;20290;-52
2022/10/10 01:50:09;;;;;;;1.30;1.13;;;;;;;;;;5048268;28;20222;-50
2022/10/10 01:52:48;;;;;;;1.70;1.47;;;;;;;;;;5043812;28;20321;-54
2022/10/10 01:55:40;;;;;;;1.50;1.20;;;;;;;;;;5044774;28;20209;-53
2022/10/10 01:58:15;;;;;;;1.53;1.23;;;;;;;;;;5038564;28;20692;-53
2022/10/10 02:01:15;;;;;;;1.30;1.20;;;;;;;;;;5033652;28;20607;-55
2022/10/10 02:03:44;;;;;;;1.60;1.30;;;;;;;;;;5039016;28;20242;-53
2022/10/10 02:06:26;;;;;;;1.77;1.30;;;;;;;;;;5049780;28;20234;-53
2022/10/10 02:09:12;;;;;;;1.50;1.30;;;;;;;;;;5042065;28;20233;-54
2022/10/10 02:11:39;;;;;;;1.20;1.10;;;;;;;;;;5039574;28;20285;-54
2022/10/10 02:14:19;;;;;;;1.37;1.23;;;;;;;;;;5045626;28;20253;-53
2022/10/10 02:16:46;;;;;;;1.30;1.13;;;;;;;;;;5041644;28;20334;-55
2022/10/10 02:19:16;;;;;;;1.37;1.27;;;;;;;;;;5043660;28;20226;-51
2022/10/10 02:21:44;;;;;;;2.17;1.37;;;;;;;;;;5039363;28;20278;-54
2022/10/10 02:24:12;;;;;;;1.70;1.30;;;;;;;;;;5039335;28;20357;-51
2022/10/10 02:26:40;;;;;;;1.60;1.37;;;;;;;;;;5045083;28;20747;-50
2022/10/10 02:29:14;;;;;;;1.33;1.23;;;;;;;;;;5042314;28;20313;-51
2022/10/10 02:31:46;;;;;;;1.73;1.30;;;;;;;;;;5043688;28;20574;-50
2022/10/10 02:34:18;;;;;;;1.37;1.27;;;;;;;;;;5047139;28;20302;-52
2022/10/10 02:36:49;;;;;;;1.10;1.00;;;;;;;;;;5044045;28;20230;-54
2022/10/10 02:39:16;;;;;;;1.67;1.37;;;;;;;;;;5038679;28;20203;-54
2022/10/10 02:41:44;;;;;;;1.40;1.30;;;;;;;;;;5038221;28;20324;-53
2022/10/10 02:44:11;;;;;;;1.23;1.13;;;;;;;;;;5021043;28;20738;-55
2022/10/10 02:46:38;;;;;;;1.60;1.20;;;;;;;;;;5040543;28;20226;-55
2022/10/10 02:49:07;;;;;;;1.47;1.30;;;;;;;;;;5048196;28;20895;-55
2022/10/10 02:51:33;;;;;;;1.40;1.30;;;;;;;;;;5033208;28;20703;-51
2022/10/10 02:54:00;;;;;;;1.40;1.30;;;;;;;;;;5042178;28;20659;-51
2022/10/10 02:56:26;;;;;;;1.30;1.20;;;;;;;;;;5039103;28;20674;-50
2022/10/10 02:58:53;;;;;;;1.70;1.30;;;;;;;;;;5038722;28;20737;-50
2022/10/10 03:01:19;;;;;;;1.40;1.20;;;;;;;;;;5042282;28;20739;-54
2022/10/10 03:03:45;;;;;;;1.20;1.10;;;;;;;;;;5029781;28;20283;-52
2022/10/10 03:06:12;;;;;;;1.53;1.43;;;;;;;;;;5043540;28;20227;-54
2022/10/10 03:08:38;;;;;;;1.30;1.20;;;;;;;;;;5041347;28;20245;-53
2022/10/10 03:11:06;;;;;;;1.30;1.20;;;;;;;;;;5042713;28;20281;-54
2022/10/10 03:13:33;;;;;;;1.77;1.37;;;;;;;;;;5038871;28;20258;-54
2022/10/10 03:15:59;;;;;;;1.50;1.33;;;;;;;;;;5041471;28;20222;-51
2022/10/10 03:18:25;;;;;;;1.30;1.20;;;;;;;;;;5042158;28;20282;-55
2022/10/10 03:20:55;;;;;;;1.20;1.10;;;;;;;;;;5035231;28;20259;-54
2022/10/10 03:23:23;;;;;;;1.57;1.10;;;;;;;;;;5046398;28;20342;-49
2022/10/10 03:25:49;;;;;;;1.13;1.03;;;;;;;;;;5045102;28;20670;-53
2022/10/10 03:28:15;;;;;;;1.20;1.07;;;;;;;;;;5053453;28;20182;-56
2022/10/10 03:30:42;;;;;;;1.40;1.30;;;;;;;;;;5073984;28;20311;-56
2022/10/10 03:33:08;;;;;;;1.40;1.20;;;;;;;;;;5070513;28;20222;-53
2022/10/10 03:35:35;;;;;;;1.50;1.30;;;;;;;;;;5044831;28;20751;-54
2022/10/10 03:38:01;;;;;;;1.33;1.23;;;;;;;;;;5040510;28;20667;-56
2022/10/10 03:40:28;;;;;;;1.30;1.20;;;;;;;;;;5042338;28;20702;-54
2022/10/10 03:42:54;;;;;;;2.13;1.10;;;;;;;;;;5043110;28;20795;-52
2022/10/10 03:45:21;;;;;;;1.50;1.30;;;;;;;;;;5043044;28;20230;-54
2022/10/10 03:47:47;;;;;;;1.53;1.10;;;;;;;;;;5043752;28;20238;-53
2022/10/10 03:50:13;;;;;;;1.30;1.10;;;;;;;;;;5050488;28;20722;-53
2022/10/10 03:52:40;;;;;;;1.60;1.30;;;;;;;;;;5044298;28;20674;-55
2022/10/10 03:55:06;;;;;;;1.53;1.20;;;;;;;;;;5041036;28;20698;-55
2022/10/10 03:57:33;;;;;;;1.47;1.10;;;;;;;;;;5050656;28;20290;-53
2022/10/10 03:59:59;;;;;;;1.50;1.40;;;;;;;;;;5045087;28;20307;-53
2022/10/10 04:02:26;;;;;;;1.50;1.27;;;;;;;;;;5044573;28;20282;-54
2022/10/10 04:04:52;;;;;;;1.13;1.03;;;;;;;;;;5055929;28;20285;-54
2022/10/10 04:07:19;;;;;;;1.20;1.10;;;;;;;;;;5045235;28;20194;-55
2022/10/10 04:09:45;;;;;;;1.30;1.17;;;;;;;;;;5041919;28;20203;-55
2022/10/10 04:12:11;;;;;;;1.57;1.20;;;;;;;;;;5049740;28;20710;-53
2022/10/10 04:14:38;;;;;;;1.10;1.00;;;;;;;;;;5048471;28;20730;-53
2022/10/10 04:17:04;;;;;;;1.27;1.17;;;;;;;;;;5045715;28;20706;-53
2022/10/10 04:19:30;;;;;;;1.37;1.13;;;;;;;;;;5044028;28;20234;-53
2022/10/10 04:21:57;;;;;;;1.40;1.23;;;;;;;;;;5047917;28;20302;-55
2022/10/10 04:24:23;;;;;;;1.17;1.07;;;;;;;;;;5044716;28;20266;-50
2022/10/10 04:26:49;;;;;;;1.20;1.10;;;;;;;;;;5046745;28;20252;-51
2022/10/10 04:29:16;;;;;;;1.37;1.20;;;;;;;;;;5041666;28;20223;-51
2022/10/10 04:31:42;;;;;;;1.33;1.23;;;;;;;;;;5047725;28;20222;-53
2022/10/10 04:34:09;;;;;;;2.13;1.70;;;;;;;;;;5039222;28;20741;-53
2022/10/10 04:36:35;;;;;;;2.30;1.83;;;;;;;;;;5040987;28;20278;-55
2022/10/10 04:39:03;;;;;;;1.70;1.50;;;;;;;;;;5046042;28;20239;-53
2022/10/10 04:41:29;;;;;;;3.13;2.10;;;;;;;;;;5039394;28;20263;-54
2022/10/10 04:43:55;;;;;;;2.27;1.70;;;;;;;;;;5047816;28;20222;-53
2022/10/10 04:46:22;;;;;;;3.00;1.77;;;;;;;;;;5039834;28;20234;-53
2022/10/10 04:48:48;;;;;;;1.63;1.47;;;;;;;;;;5044696;28;20198;-54
2022/10/10 04:51:16;;;;;;;2.00;1.60;;;;;;;;;;5039187;28;20191;-53
2022/10/10 04:53:42;;;;;;;2.00;1.60;;;;;;;;;;5040138;28;20222;-52
2022/10/10 04:56:15;;;;;;;1.90;1.50;;;;;;;;;;5046079;28;20194;-51
2022/10/10 04:58:41;;;;;;;2.13;1.90;;;;;;;;;;5042983;28;20209;-50
2022/10/10 05:01:08;;;;;;;1.70;1.30;;;;;;;;;;5041770;28;20261;-52
2022/10/10 05:03:34;;;;;;;1.53;1.30;;;;;;;;;;5048740;28;20317;-51
2022/10/10 05:06:00;;;;;;;2.13;1.83;;;;;;;;;;5038408;28;20504;-45
2022/10/10 05:08:27;;;;;;;5.00;2.63;;;;;;;;;;5040425;28;20241;-50
2022/10/10 05:10:53;;;;;;;6.90;3.07;;;;;;;;;;5038968;28;20476;-48
2022/10/10 05:13:20;;;;;;;3.63;2.60;;;;;;;;;;5042466;28;20261;-54
2022/10/10 05:15:49;;;;;;;7.63;3.00;;;;;;;;;;5036815;28;20286;-50
2022/10/10 05:18:15;;;;;;;5.23;2.90;;;;;;;;;;5045147;28;20191;-51
2022/10/10 05:20:42;;;;;;;4.83;3.33;;;;;;;;;;5043337;28;20310;-49
2022/10/10 05:23:09;;;;;;;3.40;2.60;;;;;;;;;;5043277;28;20630;-52
2022/10/10 05:25:35;;;;;;;4.33;2.60;;;;;;;;;;5044014;28;20307;-60
2022/10/10 05:28:01;;;;;;;3.93;2.90;;;;;;;;;;5052649;28;20234;-60
2022/10/10 05:30:28;;;;;;;3.67;2.53;;;;;;;;;;5036249;28;20196;-60
2022/10/10 05:32:54;;;;;;;2.93;2.40;;;;;;;;;;5038019;28;20656;-53
2022/10/10 05:35:20;;;;;;;3.80;2.60;;;;;;;;;;5044875;28;20230;-50
2022/10/10 05:37:47;;;;;;;3.10;2.40;;;;;;;;;;5044528;28;20286;-50
2022/10/10 05:40:13;;;;;;;2.50;2.30;;;;;;;;;;5044427;28;20278;-50
2022/10/10 05:42:39;;;;;;;2.67;2.43;;;;;;;;;;5036475;28;20749;-50
2022/10/10 05:45:06;;;;;;;2.87;2.37;;;;;;;;;;5038733;28;20610;-52
2022/10/10 05:47:33;;;;;;;3.40;2.67;;;;;;;;;;5044008;28;20238;-54
2022/10/10 05:49:59;;;;;;;3.73;2.70;;;;;;;;;;5036816;28;20235;-54
2022/10/10 05:52:27;;;;;;;3.20;2.40;;;;;;;;;;5042941;28;20225;-51
2022/10/10 05:54:53;;;;;;;4.40;2.80;;;;;;;;;;5045870;28;20744;-50
2022/10/10 05:57:20;;;;;;;3.10;2.30;;;;;;;;;;5037380;28;20715;-50
2022/10/10 05:59:46;;;;;;;5.73;2.50;;;;;;;;;;5035660;28;20249;-50
2022/10/10 06:02:13;;;;;;;3.60;2.53;;;;;;;;;;5039868;28;20911;-54
2022/10/10 06:04:39;;;;;;;3.00;2.40;;;;;;;;;;5038295;28;20231;-60
2022/10/10 06:07:05;;;;;;;3.40;2.53;;;;;;;;;;5041195;28;20199;-59
2022/10/10 06:09:32;;;;;;;3.33;2.30;;;;;;;;;;5036195;28;20690;-59
2022/10/10 06:11:58;;;;;;;4.27;2.30;;;;;;;;;;5041077;28;20715;-59
2022/10/10 06:14:24;;;;;;;3.33;2.43;;;;;;;;;;5046482;28;20691;-58
2022/10/10 06:16:51;;;;;;;4.43;2.73;;;;;;;;;;5040175;28;20473;-59
2022/10/10 06:19:17;;;;;;;4.03;2.40;;;;;;;;;;5038707;28;20223;-58
2022/10/10 06:21:43;;;;;;;3.30;2.20;;;;;;;;;;5036918;28;20247;-59
2022/10/10 06:24:10;;;;;;;3.20;2.30;;;;;;;;;;5044752;28;20250;-59
2022/10/10 06:26:36;;;;;;;2.55;2.10;;;;;;;;;;5040755;28;20269;-60
2022/10/10 06:29:03;;;;;;;3.55;2.45;;;;;;;;;;5043724;28;20226;-59
2022/10/10 06:31:30;;;;;;;3.80;2.38;;;;;;;;;;5037660;28;20298;-60
2022/10/10 06:33:56;;;;;;;4.60;2.00;;;;;;;;;;5037409;28;20301;-61
2022/10/10 06:36:22;;;;;;;2.97;2.50;;;;;;;;;;5035628;28;20686;-62
2022/10/10 06:38:49;;;;;;;3.45;2.60;;;;;;;;;;5040967;28;20226;-62
2022/10/10 06:41:15;;;;;;;3.03;2.25;;;;;;;;;;5036070;28;20243;-63
2022/10/10 06:43:42;;;;;;;3.60;2.30;;;;;;;;;;5038773;28;20272;-53
2022/10/10 06:46:09;;;;;;;2.35;2.08;;;;;;;;;;5042875;28;20336;-52
2022/10/10 06:48:36;;;;;;;4.85;2.63;;;;;;;;;;5044132;28;20202;-52
2022/10/10 06:51:06;;;;;;;3.85;2.10;;;;;;;;;;5035951;28;20214;-61
2022/10/10 06:53:33;;;;;;;6.63;2.38;;;;;;;;;;5037435;28;20268;-62
2022/10/10 06:55:59;;;;;;;2.50;2.05;;;;;;;;;;5044104;28;20639;-61
2022/10/10 06:58:26;;;;;;;2.67;2.13;;;;;;;;;;5052359;28;20202;-57
2022/10/10 07:00:55;;;;;;;2.65;2.13;;;;;;;;;;5039199;28;20330;-61
2022/10/10 07:03:21;;;;;;;3.10;2.35;;;;;;;;;;5038964;28;20315;-58
2022/10/10 07:05:54;;;;;;;2.78;2.10;;;;;;;;;;5042185;28;20297;-59
2022/10/10 07:08:20;;;;;;;2.58;2.13;;;;;;;;;;5042199;28;20229;-63
2022/10/10 07:10:47;;;;;;;2.83;2.30;;;;;;;;;;5030250;28;20223;-63
2022/10/10 07:13:13;;;;;;;2.53;2.33;;;;;;;;;;5034039;28;20250;-63
2022/10/10 07:15:40;;;;;;;2.60;2.08;;;;;;;;;;5041711;28;20234;-63
2022/10/10 07:18:07;;;;;;;3.75;2.13;;;;;;;;;;5050633;28;20207;-61
2022/10/10 07:20:34;;;;;;;3.25;1.90;;;;;;;;;;5037037;28;20221;-60
2022/10/10 07:23:00;;;;;;;3.00;1.90;;;;;;;;;;5039495;28;20246;-59
2022/10/10 07:25:27;;;;;;;2.88;2.30;;;;;;;;;;5031714;28;20679;-58
2022/10/10 07:27:55;;;;;;;3.17;2.28;;;;;;;;;;5044626;28;20199;-66
2022/10/10 07:30:23;;;;;;;2.55;2.13;;;;;;;;;;5041049;28;20234;-57
2022/10/10 07:32:51;;;;;;;3.00;2.50;;;;;;;;;;5050299;28;20220;-58
2022/10/10 07:35:18;;;;;;;2.45;2.10;;;;;;;;;;5038002;28;20223;-60
2022/10/10 07:37:45;;;;;;;2.28;2.03;;;;;;;;;;5039959;28;20227;-60
2022/10/10 07:40:11;;;;;;;2.42;1.98;;;;;;;;;;5048284;28;20199;-62
2022/10/10 07:42:38;;;;;;;2.75;1.95;;;;;;;;;;5044664;28;20312;-63
2022/10/10 07:45:04;;;;;;;2.70;2.10;;;;;;;;;;5034230;28;20309;-62
2022/10/10 07:47:31;;;;;;;2.28;1.90;;;;;;;;;;5042105;28;20241;-61
2022/10/10 07:49:57;;;;;;;2.63;1.80;;;;;;;;;;5040538;28;20256;-59
2022/10/10 07:52:23;;;;;;;2.22;2.00;;;;;;;;;;5038521;28;20274;-60
2022/10/10 07:54:50;;;;;;;2.60;2.00;;;;;;;;;;5044921;28;20608;-60
2022/10/10 07:57:16;;;;;;;4.55;1.90;;;;;;;;;;5041163;28;20354;-60
2022/10/10 07:59:44;;;;;;;2.33;1.85;;;;;;;;;;5036981;28;20293;-62
2022/10/10 08:02:11;;;;;;;3.58;2.22;;;;;;;;;;5033811;28;20207;-61
2022/10/10 08:04:39;;;;;;;2.47;1.83;;;;;;;;;;5038642;28;20224;-61
2022/10/10 08:07:06;;;;;;;3.42;2.30;;;;;;;;;;5035286;28;20235;-49
2022/10/10 08:09:32;;;;;;;5.82;3.13;;;;;;;;;;5045449;28;20245;-53
2022/10/10 08:11:58;;;;;;;5.13;3.75;;;;;;;;;;5039914;28;20237;-51
2022/10/10 08:14:25;;;;;;;5.63;3.50;;;;;;;;;;5045016;28;20249;-52
2022/10/10 08:16:51;;;;;;;4.82;3.22;;;;;;;;;;5044216;28;20195;-50
2022/10/10 08:19:18;;;;;;;4.10;3.42;;;;;;;;;;5044398;28;20202;-51
2022/10/10 08:21:44;;;;;;;5.50;3.60;;;;;;;;;;5039618;28;20250;-49
2022/10/10 08:24:10;;;;;;;3.00;2.63;;;;;;;;;;5039442;28;20251;-48
2022/10/10 08:26:37;;;;;;;3.97;3.10;;;;;;;;;;5044242;28;20225;-49
2022/10/10 08:29:03;;;;;;;5.53;3.22;;;;;;;;;;5050106;28;20229;-55
2022/10/10 08:31:30;;;;;;;5.47;3.13;;;;;;;;;;5049463;28;20595;-48
2022/10/10 08:33:57;;;;;;;5.10;3.00;;;;;;;;;;5048954;28;20372;-51
2022/10/10 08:36:24;;;;;;;6.85;2.60;;;;;;;;;;5053339;28;20194;-50
2022/10/10 08:38:55;;;;;;;7.47;2.90;;;;;;;;;;5048472;28;20210;-51
2022/10/10 08:41:41;;;;;;;5.15;2.67;;;;;;;;;;5054434;28;20257;-52
2022/10/10 08:44:19;;;;;;;5.95;3.75;;;;;;;;;;5049577;28;20309;-52
2022/10/10 08:46:57;;;;;;;5.07;3.70;;;;;;;;;;5049478;28;20218;-49
2022/10/10 08:49:43;;;;;;;7.00;4.00;;;;;;;;;;5046936;28;20198;-51
2022/10/10 08:52:13;;;;;;;7.30;3.30;;;;;;;;;;5043758;28;20214;-52
2022/10/10 08:54:40;;;;;;;7.97;3.42;;;;;;;;;;5047939;28;20202;-51
2022/10/10 08:57:18;;;;;;;4.32;3.10;;;;;;;;;;5041135;28;20233;-51
2022/10/10 08:59:45;;;;;;;6.72;3.47;;;;;;;;;;5040731;28;20202;-56
2022/10/10 09:02:29;;;;;;;6.28;2.47;;;;;;;;;;5047881;28;20227;-56
2022/10/10 09:05:36;;;;;;;6.70;3.25;;;;;;;;;;5046422;28;20293;-55
2022/10/10 09:08:14;;;;;;;5.95;2.80;;;;;;;;;;5043144;28;20223;-55
2022/10/10 09:10:55;;;;;;;3.53;2.08;;;;;;;;;;5044877;28;20681;-52
2022/10/10 09:13:23;;;;;;;4.30;2.38;;;;;;;;;;5044242;28;20237;-53
2022/10/10 09:15:59;;;;;;;3.92;2.15;;;;;;;;;;5046518;28;20221;-55
2022/10/10 09:18:38;;;;;;;5.03;2.13;;;;;;;;;;5036477;28;20226;-57
2022/10/10 09:21:15;;;;;;;3.10;2.05;;;;;;;;;;5049345;28;20191;-59
2022/10/10 09:23:46;;;;;;;5.47;2.05;;;;;;;;;;5044684;28;20226;-58
2022/10/10 09:26:13;;;;;;;3.45;1.80;;;;;;;;;;5053303;28;20268;-57
2022/10/10 09:29:02;;;;;;;4.18;2.05;;;;;;;;;;5049998;28;20194;-62
2022/10/10 09:31:35;;;;;;;3.88;2.28;;;;;;;;;;5048554;28;20667;-62
2022/10/10 09:34:17;;;;;;;4.00;2.35;;;;;;;;;;5041852;28;20275;-58
2022/10/10 09:36:45;;;;;;;4.72;2.00;;;;;;;;;;5043524;28;20222;-60
2022/10/10 09:39:20;;;;;;;4.15;2.42;;;;;;;;;;5046443;28;20540;-55
2022/10/10 09:41:53;;;;;;;4.32;2.10;;;;;;;;;;5035107;28;20211;-59
2022/10/10 09:44:21;;;;;;;6.63;1.90;;;;;;;;;;5041006;28;20365;-57
2022/10/10 09:46:47;;;;;;;4.30;1.95;;;;;;;;;;5047341;28;20237;-58
2022/10/10 09:49:16;;;;;;;3.30;2.05;;;;;;;;;;5038168;28;20250;-57
2022/10/10 09:51:43;;;;;;;3.70;2.45;;;;;;;;;;5041797;28;20297;-58
2022/10/10 09:54:10;;;;;;;4.00;1.83;;;;;;;;;;5044351;28;20320;-59
2022/10/10 09:56:47;;;;;;;3.25;2.10;;;;;;;;;;5039937;28;20285;-56
2022/10/10 09:59:41;;;;;;;1.92;1.70;;;;;;;;;;5038662;28;20229;-55
2022/10/10 10:02:38;;;;;;;2.22;1.80;;;;;;;;;;5045467;28;20309;-59
2022/10/10 10:05:21;;;;;;;4.90;2.13;;;;;;;;;;5044703;28;20223;-59
2022/10/10 10:07:47;;;;;;;3.15;2.20;;;;;;;;;;5047498;28;20199;-60
2022/10/10 10:10:19;;;;;;;2.70;1.90;;;;;;;;;;5046806;28;20195;-54
2022/10/10 10:12:46;;;;;;;2.58;2.00;;;;;;;;;;5044987;28;20626;-55
2022/10/10 10:15:19;;;;;;;3.95;1.98;;;;;;;;;;5049751;28;20616;-56
2022/10/10 10:17:46;;;;;;;3.75;1.70;;;;;;;;;;5047027;28;20314;-55
2022/10/10 10:20:32;;;;;;;4.32;1.80;;;;;;;;;;5045453;28;20742;-56
2022/10/10 10:22:58;;;;;;;3.08;1.95;;;;;;;;;;5043848;28;20242;-56
2022/10/10 10:25:28;;;;;;;3.10;2.10;;;;;;;;;;5043030;28;20248;-53
2022/10/10 10:28:12;;;;;;;2.13;1.70;;;;;;;;;;5044217;28;20558;-55
2022/10/10 10:30:39;;;;;;;4.60;1.95;;;;;;;;;;5037616;28;20199;-55
2022/10/10 10:33:11;;;;;;;2.90;1.80;;;;;;;;;;5045661;28;20321;-52
2022/10/10 10:35:57;;;;;;;3.05;2.00;;;;;;;;;;5044291;28;20226;-47
2022/10/10 10:38:39;;;;;;;4.80;2.20;;;;;;;;;;5048455;28;20187;-50
2022/10/10 10:41:17;;;;;;;2.95;1.92;;;;;;;;;;5045192;28;20686;-51
2022/10/10 10:44:04;;;;;;;4.45;1.90;;;;;;;;;;5044322;28;20265;-51
2022/10/10 10:46:36;;;;;;;3.58;2.30;;;;;;;;;;5044046;28;20218;-49
2022/10/10 10:49:32;;;;;;;3.63;2.45;;;;;;;;;;5046226;28;20226;-50
2022/10/10 10:52:08;;;;;;;4.53;2.72;;;;;;;;;;5049545;28;20237;-49
2022/10/10 10:54:53;;;;;;;3.08;2.20;;;;;;;;;;5044136;28;20687;-56
2022/10/10 10:57:41;;;;;;;4.75;2.40;;;;;;;;;;5047811;28;20215;-57
2022/10/10 11:00:31;;;;;;;3.45;2.45;;;;;;;;;;5043654;28;20199;-58
2022/10/10 11:03:26;;;;;;;3.33;2.22;;;;;;;;;;5047026;28;20613;-60
2022/10/10 11:06:26;;;;;;;4.13;2.25;;;;;;;;;;5043214;28;20296;-60
2022/10/10 11:09:03;;;;;;;3.20;2.03;;;;;;;;;;5036821;28;20203;-60
2022/10/10 11:11:50;;;;;;;4.10;2.25;;;;;;;;;;5052003;28;20237;-61
2022/10/10 11:14:51;;;;;;;4.05;2.47;;;;;;;;;;5043435;28;20707;-60
2022/10/10 11:17:36;;;;;;;3.55;2.10;;;;;;;;;;5045489;28;20294;-60
2022/10/10 11:20:23;;;;;;;5.63;2.38;;;;;;;;;;5041570;28;20692;-59
2022/10/10 11:23:02;;;;;;;2.60;2.03;;;;;;;;;;5041085;28;20377;-58
2022/10/10 11:25:44;;;;;;;3.72;2.15;;;;;;;;;;5036290;28;20198;-57
2022/10/10 11:28:25;;;;;;;3.20;2.05;;;;;;;;;;5043944;28;20222;-58
2022/10/10 11:31:12;;;;;;;3.95;2.10;;;;;;;;;;5040795;28;20264;-58
2022/10/10 11:33:45;;;;;;;2.38;1.98;;;;;;;;;;5042247;28;20357;-57
2022/10/10 11:36:18;;;;;;;3.92;2.35;;;;;;;;;;5060184;28;20226;-57
2022/10/10 11:38:48;;;;;;;4.20;2.25;;;;;;;;;;5043799;28;20196;-55
2022/10/10 11:41:24;;;;;;;2.60;2.10;;;;;;;;;;5037054;28;20195;-56
2022/10/10 11:44:25;;;;;;;3.20;1.90;;;;;;;;;;5025504;28;20258;-57
2022/10/10 11:46:59;;;;;;;3.25;2.08;;;;;;;;;;5015060;28;20230;-57
2022/10/10 11:49:36;;;;;;;4.28;1.98;;;;;;;;;;5047722;28;20286;-59
2022/10/10 11:52:12;;;;;;;2.50;2.10;;;;;;;;;;5039406;28;20226;-60
2022/10/10 11:55:37;;;;;;;2.83;1.95;;;;;;;;;;5047988;28;20198;-58
2022/10/10 11:58:03;;;;;;;2.55;1.90;;;;;;;;;;5011402;28;20290;-59
2022/10/10 12:00:33;;;;;;;3.03;2.00;;;;;;;;;;4991308;28;20764;-60
2022/10/10 12:03:00;;;;;;;2.95;1.83;;;;;;;;;;5021143;28;20255;-63
2022/10/10 12:05:28;;;;;;;2.13;1.85;;;;;;;;;;5041656;28;20248;-61
2022/10/10 12:08:17;;;;;;;3.80;2.08;;;;;;;;;;5046441;28;20290;-61
2022/10/10 12:11:24;;;;;;;3.97;2.78;;;;;;;;;;5043259;28;20210;-61
2022/10/10 12:14:00;;;;;;;6.07;3.17;;;;;;;;;;4973966;28;20318;-48
2022/10/10 12:16:29;;;;;;;4.80;2.95;;;;;;;;;;5044115;28;20222;-48
2022/10/10 12:19:02;;;;;;;5.60;3.33;;;;;;;;;;5059993;28;20207;-49
2022/10/10 12:21:29;;;;;;;4.00;3.08;;;;;;;;;;5047259;28;20282;-50
2022/10/10 12:24:13;;;;;;;4.97;2.90;;;;;;;;;;5048391;28;20571;-49
2022/10/10 12:26:52;;;;;;;4.43;3.22;;;;;;;;;;5047009;28;20744;-49
2022/10/10 12:29:55;;;;;;;4.80;2.50;;;;;;;;;;5048294;28;20603;-54
2022/10/10 12:32:21;;;;;;;4.80;2.40;;;;;;;;;;5050010;28;20230;-51
2022/10/10 12:34:47;;;;;;;3.38;2.47;;;;;;;;;;5047103;28;20231;-51
2022/10/10 12:37:29;;;;;;;3.42;2.50;;;;;;;;;;5043362;28;21364;-57
2022/10/10 12:40:19;;;;;;;4.00;2.28;;;;;;;;;;5039226;28;20898;-53
2022/10/10 12:42:45;;;;;;;3.58;2.05;;;;;;;;;;5041709;28;20295;-57
2022/10/10 12:45:30;;;;;;;5.25;2.17;;;;;;;;;;5045509;28;20714;-56
2022/10/10 12:48:01;;;;;;;2.42;2.03;;;;;;;;;;5040726;28;20269;-55
2022/10/10 12:50:35;;;;;;;4.10;2.40;;;;;;;;;;5041768;28;20659;-54
2022/10/10 12:53:14;;;;;;;4.15;2.13;;;;;;;;;;5046023;28;20245;-53
2022/10/10 12:55:47;;;;;;;2.80;2.20;;;;;;;;;;5044434;28;20233;-56
2022/10/10 12:58:18;;;;;;;3.80;2.38;;;;;;;;;;5046389;28;20222;-58
2022/10/10 13:01:05;;;;;;;3.42;2.22;;;;;;;;;;5045688;28;20195;-57
2022/10/10 13:03:37;;;;;;;2.47;1.90;;;;;;;;;;5045810;28;20597;-56
2022/10/10 13:06:38;;;;;;;3.22;2.10;;;;;;;;;;5045355;28;20233;-54
2022/10/10 13:09:19;;;;;;;2.95;1.88;;;;;;;;;;5056314;28;20191;-58
2022/10/10 13:11:55;;;;;;;3.17;2.30;;;;;;;;;;5044884;28;20223;-60
2022/10/10 13:14:22;;;;;;;3.92;2.55;;;;;;;;;;5038311;28;20249;-61
2022/10/10 13:16:48;;;;;;;3.95;2.50;;;;;;;;;;5044519;28;20226;-60
2022/10/10 13:19:23;;;;;;;2.85;1.85;;;;;;;;;;5043563;28;20199;-58
2022/10/10 13:21:51;;;;;;;2.97;2.10;;;;;;;;;;5044823;28;20236;-55
2022/10/10 13:24:23;;;;;;;4.25;2.47;;;;;;;;;;5039796;28;20310;-55
2022/10/10 13:26:51;;;;;;;1.98;1.77;;;;;;;;;;5040447;28;20230;-60
2022/10/10 13:29:22;;;;;;;2.55;2.20;;;;;;;;;;5038888;28;20244;-59
2022/10/10 13:31:50;;;;;;;2.42;2.00;;;;;;;;;;5047526;28;20194;-60
2022/10/10 13:34:22;;;;;;;2.30;1.85;;;;;;;;;;5039217;28;20308;-57
2022/10/10 13:36:54;;;;;;;2.65;2.13;;;;;;;;;;5045925;28;20248;-59
2022/10/10 13:39:21;;;;;;;3.22;2.10;;;;;;;;;;5039447;28;20226;-57
2022/10/10 13:41:48;;;;;;;2.10;1.90;;;;;;;;;;5043465;28;20229;-55
2022/10/10 13:44:19;;;;;;;2.38;1.90;;;;;;;;;;5041184;28;20219;-57
2022/10/10 13:46:46;;;;;;;4.03;2.00;;;;;;;;;;5043214;28;20219;-56
2022/10/10 13:49:21;;;;;;;2.22;1.73;;;;;;;;;;5046235;28;20323;-58
2022/10/10 13:51:50;;;;;;;2.55;1.83;;;;;;;;;;5043366;28;20245;-58
2022/10/10 13:54:44;;;;;;;2.53;1.95;;;;;;;;;;5045534;28;20297;-58
2022/10/10 13:57:14;;;;;;;3.08;1.90;;;;;;;;;;5039572;28;20234;-54
2022/10/10 13:59:41;;;;;;;2.13;1.70;;;;;;;;;;5039873;28;20200;-61
2022/10/10 14:02:12;;;;;;;2.25;1.77;;;;;;;;;;5041902;28;20222;-57
2022/10/10 14:04:44;;;;;;;2.10;1.80;;;;;;;;;;5041378;28;20759;-57
2022/10/10 14:07:20;;;;;;;2.95;2.10;;;;;;;;;;5050268;28;20230;-49
2022/10/10 14:09:53;;;;;;;2.72;2.10;;;;;;;;;;5046270;28;20222;-52
2022/10/10 14:12:27;;;;;;;2.72;2.40;;;;;;;;;;5038810;28;20199;-47
2022/10/10 14:14:56;;;;;;;4.10;2.30;;;;;;;;;;5043055;28;20211;-49
2022/10/10 14:17:24;;;;;;;4.50;2.70;;;;;;;;;;5047005;28;20226;-52
2022/10/10 14:19:51;;;;;;;3.83;2.30;;;;;;;;;;5043979;28;20294;-47
2022/10/10 14:22:17;;;;;;;3.15;2.33;;;;;;;;;;5044456;28;20229;-52
2022/10/10 14:24:44;;;;;;;3.63;2.35;;;;;;;;;;5043636;28;20318;-51
2022/10/10 14:27:15;;;;;;;3.83;2.38;;;;;;;;;;5050665;28;20222;-47
2022/10/10 14:29:42;;;;;;;3.50;2.65;;;;;;;;;;5042562;28;20234;-50
2022/10/10 14:32:12;;;;;;;2.95;2.25;;;;;;;;;;5046133;28;20280;-51
2022/10/10 14:34:39;;;;;;;3.67;2.30;;;;;;;;;;5040006;28;20218;-56
2022/10/10 14:37:05;;;;;;;2.70;2.33;;;;;;;;;;5039940;28;20283;-55
2022/10/10 14:39:31;;;;;;;3.15;2.40;;;;;;;;;;5037779;28;20200;-56
2022/10/10 14:42:00;;;;;;;3.20;2.50;;;;;;;;;;5042149;28;20623;-58
2022/10/10 14:44:26;;;;;;;2.72;2.30;;;;;;;;;;5043007;28;20730;-56
2022/10/10 14:46:53;;;;;;;3.40;2.58;;;;;;;;;;5046542;28;20225;-56
2022/10/10 14:49:20;;;;;;;3.60;2.40;;;;;;;;;;5043637;28;20230;-56
2022/10/10 14:51:47;;;;;;;4.40;2.88;;;;;;;;;;5042105;28;20294;-54
2022/10/10 14:54:13;;;;;;;4.10;2.58;;;;;;;;;;5044400;28;20238;-54
2022/10/10 14:56:42;;;;;;;4.82;2.50;;;;;;;;;;5041110;28;20227;-56
2022/10/10 14:59:28;;;;;;;3.17;2.38;;;;;;;;;;5044635;28;20577;-54
2022/10/10 15:02:15;;;;;;;3.28;2.25;;;;;;;;;;5049508;28;20202;-53
2022/10/10 15:04:42;;;;;;;3.53;2.60;;;;;;;;;;5044611;28;20865;-55
2022/10/10 15:07:10;;;;;;;3.63;2.38;;;;;;;;;;5043451;28;20226;-52
2022/10/10 15:09:40;;;;;;;2.88;2.28;;;;;;;;;;5043143;28;20221;-53